1922 Tropical Cyclone NOT_NAMED (1922038S20156)


IBTrACS version v04r00. Visit IBTrACS website for data access.
Please direct all questions to the IBTrACS Q and A forum

Storm track - Intensity - Wind Radii - Intensity Data - Source Data - All data

Summary Information

Storm ID 1922038S20156
Start Feb 6 23Z
Max Intensity 40 kt (Feb 18 00Z), 995 mb (Feb 17 23Z)
End Feb 21 23Z
ATCF IDs
Track status Best track data.

Storm track plot

Map of storm track

Intensity plots

Map of storm track

Radial wind information

No radial wind information for this storm


Position and Intensity Table

BASIN ISO_TIME_________ NATURE LAT LON WMO PRES BOM PRES DS824 WIND DS824 PRES
degrees north degrees east mb mb kts mb
SP 1922-02-06 23:00:00 NR -19.80 155.70
SP 1922-02-07 00:00:00 TS -19.80 155.70
SP 03:00:00 TS -19.81 155.72
SP 06:00:00 TS -19.82 155.73
SP 09:00:00 TS -19.84 155.75
SP 12:00:00 TS -19.86 155.77
SP 15:00:00 TS -19.88 155.79
SP 18:00:00 TS -19.92 155.82
SP 21:00:00 TS -19.96 155.86
SP 23:00:00 TS -19.99 155.89
SP 1922-02-08 00:00:00 TS -20.01 155.91
SP 03:00:00 TS -20.07 155.96
SP 06:00:00 TS -20.14 156.03
SP 09:00:00 TS -20.22 156.09
SP 12:00:00 TS -20.30 156.16
SP 15:00:00 TS -20.38 156.23
SP 18:00:00 TS -20.46 156.29
SP 21:00:00 TS -20.54 156.36
SP 23:00:00 TS -20.50 156.29
SP 1922-02-09 00:00:00 TS -20.45 156.23
SP 03:00:00 TS -20.44 156.20
SP 06:00:00 TS -20.44 156.17
SP 09:00:00 TS -20.48 156.20
SP 11:00:00 TS -20.51 156.22
SP 12:00:00 TS -20.52 156.23
SP 15:00:00 TS -20.56 156.25
SP 18:00:00 TS -20.60 156.28
SP 21:00:00 TS -20.64 156.31
SP 23:00:00 TS -20.66 156.33
SP 1922-02-10 00:00:00 TS -20.68 156.35
SP 03:00:00 TS -20.72 156.39
SP 06:00:00 TS -20.76 156.43
SP 09:00:00 TS -20.80 156.48
SP 11:00:00 TS -20.83 156.50
SP 12:00:00 TS -20.85 156.51
SP 15:00:00 TS -20.91 156.52
SP 18:00:00 TS -20.97 156.54
SP 21:00:00 TS -21.03 156.55
SP 23:00:00 TS -21.06 156.56
SP 1922-02-11 00:00:00 TS -21.08 156.58
SP 03:00:00 TS -21.12 156.62
SP 06:00:00 TS -21.15 156.66
SP 09:00:00 TS -21.19 156.70
SP 11:00:00 TS -21.21 156.73
SP 12:00:00 TS -21.23 156.74
SP 15:00:00 TS -21.27 156.77
SP 18:00:00 TS -21.31 156.79
SP 21:00:00 TS -21.36 156.82
SP 23:00:00 TS -21.39 156.83
SP 1922-02-12 00:00:00 TS -21.40 156.83
SP 03:00:00 TS -21.42 156.83
SP 06:00:00 TS -21.44 156.81
SP 09:00:00 TS -21.46 156.81
SP 11:00:00 TS -21.49 156.80
SP 12:00:00 TS -21.51 156.80
SP 15:00:00 TS -21.58 156.81
SP 18:00:00 TS -21.68 156.84
SP 21:00:00 TS -21.81 156.90
SP 23:00:00 TS -21.91 156.95
SP 1922-02-13 00:00:00 TS -21.97 156.99
SP 03:00:00 TS -22.18 157.11
SP 06:00:00 TS -22.41 157.26
SP 08:00:00 TS -22.56 157.38
SP 09:00:00 TS -22.64 157.44
SP 11:00:00 TS -22.78 157.56
SP 12:00:00 TS -22.99 157.70
SP 15:00:00 TS -23.40 158.04
SP 18:00:00 TS -23.91 158.48
SP 21:00:00 TS -24.56 159.04
SP 23:00:00 TS -24.79 159.28
SP 1922-02-14 00:00:00 TS -24.92 159.40
SP 03:00:00 TS -25.38 159.75
SP 06:00:00 TS -25.85 160.13
SP 09:00:00 TS -26.31 160.54
SP 11:00:00 TS -26.60 160.84
SP 12:00:00 TS -26.73 160.99
SP 15:00:00 TS -27.09 161.47
SP 16:00:00 TS -27.19 161.64
SP 18:00:00 TS -27.35 162.03
SP 21:00:00 TS -27.52 162.58
SP 23:00:00 TS -27.59 162.90
SP 1922-02-15 00:00:00 TS -27.61 163.03
SP 03:00:00 TS -27.59 163.30
SP 06:00:00 TS -27.51 163.46
SP 09:00:00 TS -27.38 163.55
SP 11:00:00 TS -27.28 163.59
SP 12:00:00 TS -27.23 163.62
SP 15:00:00 TS -27.11 163.72
SP 18:00:00 TS -26.96 163.79
SP 21:00:00 TS -26.80 163.82
SP 23:00:00 TS -26.68 163.81
SP 1922-02-16 00:00:00 TS -26.61 163.79
SP 03:00:00 TS -26.40 163.76
SP 06:00:00 TS -26.18 163.68
SP 09:00:00 TS -26.01 163.25
SP 10:00:00 TS -26.02 162.98
SP 11:00:00 TS -26.06 162.80
SP 12:00:00 TS -26.11 162.67
SP 15:00:00 TS -26.10 162.73
SP 18:00:00 TS -26.06 162.73
SP 21:00:00 TS -25.85 162.66
SP 23:00:00 TS -25.59 162.49
SP 1922-02-17 00:00:00 TS -25.30 162.31
SP 03:00:00 TS -24.77 161.66
SP 06:00:00 TS -24.54 161.00
SP 09:00:00 TS -24.33 160.30
SP 11:00:00 TS -24.22 159.82
SP 12:00:00 TS -24.18 159.58
SP 15:00:00 TS -24.11 158.88
SP 18:00:00 TS -24.08 158.16
SP 21:00:00 TS -24.09 157.46
SP 23:00:00 TS -24.10 157.01 995 995
SP 1922-02-18 00:00:00 TS -24.10 156.79 40 995
SP 03:00:00 TS -24.13 156.13
SP 06:00:00 TS -24.16 155.50
SP 09:00:00 TS -24.21 154.91
SP 11:00:00 TS -24.23 154.53
SP 12:00:00 TS -24.24 154.36
SP 15:00:00 TS -24.26 153.85
SP 18:00:00 TS -24.26 153.40
SP 21:00:00 TS -24.22 153.02
SP 23:00:00 TS -24.17 152.80
SP 1922-02-19 00:00:00 TS -24.13 152.69
SP 03:00:00 TS -24.00 152.39
SP 06:00:00 TS -23.83 152.17
SP 09:00:00 TS -23.63 152.04
SP 11:00:00 TS -23.49 152.00
SP 12:00:00 TS -23.42 151.98
SP 15:00:00 TS -23.20 151.93
SP 18:00:00 TS -22.96 152.00
SP 21:00:00 TS -22.67 152.22
SP 23:00:00 TS -22.45 152.48
SP 1922-02-20 00:00:00 TS -22.33 152.64
SP 03:00:00 TS -21.93 153.26
SP 06:00:00 TS -21.80 154.21
SP 08:00:00 TS -21.83 154.74
SP 09:00:00 TS -21.45 154.90
SP 11:00:00 TS -20.84 155.44
SP 12:00:00 TS -20.71 155.74
SP 15:00:00 TS -20.35 156.66
SP 18:00:00 TS -20.04 157.63
SP 20:00:00 TS -19.88 158.30
SP 21:00:00 TS -19.78 158.66
SP 23:00:00 TS -19.67 159.35
SP 1922-02-21 00:00:00 TS -19.65 159.66
SP 03:00:00 NR -19.90 160.31
SP 06:00:00 NR -20.32 160.75
SP 09:00:00 NR -20.80 161.10
SP 11:00:00 NR -21.12 161.33
SP 12:00:00 NR -21.28 161.44
SP 15:00:00 NR -21.76 161.80
SP 18:00:00 NR -22.23 162.17
SP 21:00:00 NR -22.69 162.55
SP 23:00:00 NR -23.00 162.80

Source Information

Agency Information
USA
TOKYO
CMA
HKO
NEWDELHI
REUNION
BOM IDCKMSTM0S.csv:Line=428:unnamed
NADI
WELLINGTON
DS824 aus_area.dat:40:NOT NAMED
TD9636 cons_worldwide_trop_cyclone_18710101-19891231-006:Line=1296
TD9635
NEUMANN
MLC

All available IBTrACS Data

SEASON BASIN SUBBASIN ISO_TIME_________ NATURE LAT LON WMO PRES WMO AGENCY DIST2LAND LANDFALL IFLAG USA SSHS BOM LAT BOM LON BOM PRES BOM PRES_METHOD DS824 LAT DS824 LON DS824 STAGE DS824 WIND DS824 PRES TD9636 LAT TD9636 LON TD9636 STAGE STORM SPEED STORM DIR
Year degrees north degrees east mb km km 1 degrees north degrees east mb degrees north degrees east kts mb degrees north degrees east kts degrees
1922 SP EA 1922-02-06 23:00:00 NR -19.80 155.70 bom 590 590 ______O_______ -1 -19.80 155.70 0 0
1922 SP EA 1922-02-07 00:00:00 TS -19.80 155.70 590 590 ______P__O____ -1 -19.80 155.70 -19.80 155.70 TC 0 0
1922 SP EA 03:00:00 TS -19.81 155.72 590 590 ______P__P____ -1 -19.81 155.72 -19.81 155.71 TC 0 0
1922 SP EA 06:00:00 TS -19.82 155.73 590 590 ______P__P____ -1 -19.83 155.73 -19.82 155.73 TC 0 132
1922 SP EA 09:00:00 TS -19.84 155.75 590 590 ______P__P____ -1 -19.84 155.75 -19.84 155.74 TC 0 128
1922 SP EA 12:00:00 TS -19.86 155.77 594 594 ______P__P____ -1 -19.86 155.77 -19.85 155.76 TC 1 143
1922 SP EA 15:00:00 TS -19.88 155.79 594 594 ______P__P____ -1 -19.89 155.80 -19.88 155.79 TC 1 137
1922 SP EA 18:00:00 TS -19.92 155.82 594 594 ______P__P____ -1 -19.92 155.83 -19.91 155.82 TC 1 135
1922 SP EA 21:00:00 TS -19.96 155.86 597 597 ______P__P____ -1 -19.97 155.87 -19.95 155.85 TC 1 135
1922 SP EA 23:00:00 TS -19.99 155.89 bom 597 597 ______O__P____ -1 -20.00 155.90 -19.98 155.88 TC 1 139
1922 SP EA 1922-02-08 00:00:00 TS -20.01 155.91 597 589 ______P__O____ -1 -20.02 155.92 -20.00 155.90 TC 2 140
1922 SP EA 03:00:00 TS -20.07 155.96 594 594 ______P__P____ -1 -20.08 155.97 -20.06 155.95 TC 2 140
1922 SP EA 06:00:00 TS -20.14 156.03 594 584 ______P__P____ -1 -20.15 156.04 -20.13 156.02 TC 2 141
1922 SP EA 09:00:00 TS -20.22 156.09 589 579 ______P__P____ -1 -20.23 156.10 -20.21 156.08 TC 2 141
1922 SP EA 12:00:00 TS -20.30 156.16 584 574 ______P__P____ -1 -20.31 156.17 -20.29 156.15 TC 2 142
1922 SP EA 15:00:00 TS -20.38 156.23 574 570 ______P__P____ -1 -20.39 156.24 -20.37 156.22 TC 2 142
1922 SP EA 18:00:00 TS -20.46 156.29 570 570 ______P__P____ -1 -20.47 156.31 -20.45 156.28 TC 2 143
1922 SP EA 21:00:00 TS -20.54 156.36 576 570 ______P__P____ -1 -20.55 156.36 -20.53 156.35 TC 0 189
1922 SP EA 23:00:00 TS -20.50 156.29 bom 570 565 ______O__PO___ -1 -20.60 156.40 -20.58 156.38 TC -19.80 155.50 7 3 307
1922 SP EA 1922-02-09 00:00:00 TS -20.45 156.23 565 565 ______P__OP___ -1 -20.62 156.41 -20.60 156.40 TC -19.81 155.51 7 2 303
1922 SP EA 03:00:00 TS -20.44 156.20 574 574 ______P__PP___ -1 -20.68 156.45 -20.66 156.44 TC -19.84 155.53 7 1 282
1922 SP EA 06:00:00 TS -20.44 156.17 574 565 ______P__PP___ -1 -20.74 156.49 -20.72 156.48 TC -19.86 155.55 7 0 171
1922 SP EA 09:00:00 TS -20.48 156.20 565 565 ______P__PP___ -1 -20.79 156.51 -20.77 156.51 TC -19.89 155.58 7 1 154
1922 SP EA 11:00:00 TS -20.51 156.22 565 565 ______P__PO___ -1 -20.82 156.53 -20.81 156.52 TC -19.90 155.60 7 1 0
1922 SP EA 12:00:00 TS -20.52 156.23 565 555 ______P__PP___ -1 -20.84 156.54 -20.82 156.53 TC -19.91 155.61 7 1 139
1922 SP EA 15:00:00 TS -20.56 156.25 561 561 ______P__PP___ -1 -20.89 156.56 -20.87 156.55 TC -19.93 155.65 7 1 141
1922 SP EA 18:00:00 TS -20.60 156.28 561 561 ______P__PP___ -1 -20.93 156.57 -20.92 156.57 TC -19.95 155.69 7 1 141
1922 SP EA 21:00:00 TS -20.64 156.31 561 551 ______P__PP___ -1 -20.97 156.59 -20.96 156.59 TC -19.98 155.75 7 1 136
1922 SP EA 23:00:00 TS -20.66 156.33 bom 551 551 ______O__PO___ -1 -21.00 156.60 -20.99 156.60 TC -20.00 155.80 7 1 134
1922 SP EA 1922-02-10 00:00:00 TS -20.68 156.35 551 551 ______P__OP___ -1 -21.01 156.61 -21.00 156.60 TC -20.01 155.83 7 1 132
1922 SP EA 03:00:00 TS -20.72 156.39 557 548 ______P__PP___ -1 -21.06 156.62 -21.04 156.62 TC -20.05 155.93 7 1 137
1922 SP EA 06:00:00 TS -20.76 156.43 548 548 ______P__PP___ -1 -21.10 156.63 -21.08 156.63 TC -20.09 156.04 7 1 137
1922 SP EA 09:00:00 TS -20.80 156.48 554 554 ______P__PP___ -1 -21.13 156.64 -21.12 156.64 TC -20.15 156.15 7 1 143
1922 SP EA 11:00:00 TS -20.83 156.50 554 554 ______P__PO___ -1 -21.16 156.65 -21.15 156.65 TC -20.20 156.20 7 1 137
1922 SP EA 12:00:00 TS -20.85 156.51 545 545 ______P__PP___ -1 -21.17 156.65 -21.16 156.65 TC -20.23 156.22 7 1 161
1922 SP EA 15:00:00 TS -20.91 156.52 545 536 ______P__PP___ -1 -21.21 156.66 -21.19 156.66 TC -20.33 156.25 7 1 159
1922 SP EA 18:00:00 TS -20.97 156.54 536 536 ______P__PP___ -1 -21.24 156.68 -21.23 156.67 TC -20.44 156.26 7 1 172
1922 SP EA 21:00:00 TS -21.03 156.55 542 533 ______P__PP___ -1 -21.28 156.69 -21.26 156.68 TC -20.54 156.28 7 1 166
1922 SP EA 23:00:00 TS -21.06 156.56 bom 533 533 ______O__PO___ -1 -21.30 156.70 -21.29 156.69 TC -20.60 156.30 7 1 157
1922 SP EA 1922-02-11 00:00:00 TS -21.08 156.58 533 533 ______P__OP___ -1 -21.31 156.71 -21.30 156.70 TC -20.62 156.32 7 1 144
1922 SP EA 03:00:00 TS -21.12 156.62 533 531 ______P__PP___ -1 -21.34 156.73 -21.33 156.72 TC -20.68 156.40 7 1 133
1922 SP EA 06:00:00 TS -21.15 156.66 531 531 ______P__PP___ -1 -21.37 156.76 -21.36 156.74 TC -20.73 156.48 7 1 132
1922 SP EA 09:00:00 TS -21.19 156.70 531 531 ______P__PP___ -1 -21.41 156.78 -21.39 156.77 TC -20.77 156.56 7 1 131
1922 SP EA 11:00:00 TS -21.21 156.73 531 531 ______P__PO___ -1 -21.43 156.80 -21.41 156.78 TC -20.80 156.60 7 1 132
1922 SP EA 12:00:00 TS -21.23 156.74 531 530 ______P__PP___ -1 -21.44 156.81 -21.42 156.79 TC -20.82 156.62 7 1 144
1922 SP EA 15:00:00 TS -21.27 156.77 530 530 ______P__PP___ -1 -21.48 156.84 -21.46 156.82 TC -20.87 156.65 7 1 146
1922 SP EA 18:00:00 TS -21.31 156.79 530 521 ______P__PP___ -1 -21.52 156.86 -21.50 156.85 TC -20.92 156.67 7 1 163
1922 SP EA 21:00:00 TS -21.36 156.82 521 521 ______P__PP___ -1 -21.56 156.89 -21.54 156.87 TC -20.97 156.69 7 1 156
1922 SP EA 23:00:00 TS -21.39 156.83 bom 521 521 ______O__PO___ -1 -21.60 156.90 -21.58 156.89 TC -21.00 156.70 7 1 0
1922 SP EA 1922-02-12 00:00:00 TS -21.40 156.83 521 521 ______P__OP___ -1 -21.60 156.89 -21.60 156.90 TC -21.01 156.71 7 0 0
1922 SP EA 03:00:00 TS -21.42 156.83 521 521 ______P__PP___ -1 -21.59 156.85 -21.63 156.89 TC -21.04 156.74 7 0 210
1922 SP EA 06:00:00 TS -21.44 156.81 521 513 ______P__PP___ -1 -21.59 156.81 -21.67 156.87 TC -21.06 156.77 7 0 0
1922 SP EA 09:00:00 TS -21.46 156.81 513 513 ______P__PP___ -1 -21.60 156.78 -21.71 156.85 TC -21.08 156.79 7 1 199
1922 SP EA 11:00:00 TS -21.49 156.80 513 513 ______P__PO___ -1 -21.62 156.76 -21.75 156.85 TC -21.10 156.80 7 1 0
1922 SP EA 12:00:00 TS -21.51 156.80 513 505 ______P__PP___ -1 -21.63 156.76 -21.78 156.85 TC -21.11 156.80 7 1 172
1922 SP EA 15:00:00 TS -21.58 156.81 505 497 ______P__PP___ -1 -21.71 156.76 -21.86 156.86 TC -21.16 156.81 7 2 166
1922 SP EA 18:00:00 TS -21.68 156.84 497 497 ______P__PP___ -1 -21.84 156.81 -21.97 156.90 TC -21.22 156.81 7 2 161
1922 SP EA 21:00:00 TS -21.81 156.90 497 489 ______P__PP___ -1 -22.03 156.90 -22.12 156.98 TC -21.27 156.80 7 3 157
1922 SP EA 23:00:00 TS -21.91 156.95 bom 497 490 ______O__PO___ -1 -22.20 157.00 -22.23 157.05 TC -21.30 156.80 7 4 154
1922 SP EA 1922-02-13 00:00:00 TS -21.97 156.99 490 483 ______P__OP___ -1 -22.31 157.06 -22.30 157.10 TC -21.31 156.80 7 5 151
1922 SP EA 03:00:00 TS -22.18 157.11 484 479 ______P__PP___ -1 -22.66 157.27 -22.53 157.26 TC -21.33 156.79 7 5 149
1922 SP EA 06:00:00 TS -22.41 157.26 487 481 ______P__PP___ -1 -23.05 157.52 -22.81 157.47 TC -21.35 156.79 7 5 147
1922 SP EA 08:00:00 TS -22.56 157.38 bom 484 484 ______O__PP___ -1 -23.30 157.70 -23.01 157.63 TC -21.36 156.79 7 6 145
1922 SP EA 09:00:00 TS -22.64 157.44 484 481 ______P__PP___ -1 -23.41 157.79 -23.12 157.72 TC -21.37 156.79 7 6 143
1922 SP EA 11:00:00 TS -22.78 157.56 491 485 ______P__PO___ -1 -23.61 157.98 -23.34 157.90 TC -21.40 156.80 7 9 145
1922 SP EA 12:00:00 TS -22.99 157.70 490 489 ______P__P____ -1 -23.71 158.08 -23.45 158.00 TC 7 11 144
1922 SP EA 15:00:00 TS -23.40 158.04 499 499 ______P__P____ -1 -23.99 158.40 -23.80 158.31 TC 7 12 142
1922 SP EA 18:00:00 TS -23.91 158.48 530 527 ______P__P____ -1 -24.27 158.73 -24.16 158.65 TC 7 15 142
1922 SP EA 21:00:00 TS -24.56 159.04 566 566 ______P__P____ -1 -24.58 159.07 -24.53 159.01 TC 7 14 140
1922 SP EA 23:00:00 TS -24.79 159.28 bom 595 594 ______O__P____ -1 -24.80 159.30 -24.78 159.27 TC 7 10 139
1922 SP EA 1922-02-14 00:00:00 TS -24.92 159.40 604 604 ______P__O____ -1 -24.95 159.39 -24.90 159.40 TC 7 11 144
1922 SP EA 03:00:00 TS -25.38 159.75 644 644 ______P__P____ -1 -25.43 159.66 -25.33 159.85 TC 7 11 144
1922 SP MM 06:00:00 TS -25.85 160.13 678 678 ______P__P____ -1 -25.93 159.93 -25.77 160.33 TC 7 12 143
1922 SP MM 09:00:00 TS -26.31 160.54 706 700 ______P__P____ -1 -26.42 160.25 -26.20 160.84 TC 7 12 140
1922 SP MM 11:00:00 TS -26.60 160.84 714 708 ______P__P____ -1 -26.72 160.49 -26.48 161.18 TC 7 12 137
1922 SP MM 12:00:00 TS -26.73 160.99 712 712 ______P__P____ -1 -26.86 160.63 -26.61 161.34 TC 7 11 131
1922 SP MM 15:00:00 TS -27.09 161.47 724 719 ______P__P____ -1 -27.21 161.11 -26.97 161.83 TC 7 11 128
1922 SP MM 16:00:00 TS -27.19 161.64 bom 728 713 ______O__P____ -1 -27.30 161.30 -27.08 161.99 TC 7 11 118
1922 SP MM 18:00:00 TS -27.35 162.03 722 695 ______P__P____ -1 -27.44 161.77 -27.27 162.28 TC 7 11 112
1922 SP MM 21:00:00 TS -27.52 162.58 695 689 ______P__P____ -1 -27.57 162.49 -27.48 162.68 TC 7 10 107
1922 SP MM 23:00:00 TS -27.59 162.90 bom 689 684 ______O__P____ -1 -27.60 162.90 -27.57 162.90 TC 7 8 102
1922 SP MM 1922-02-15 00:00:00 TS -27.61 163.03 684 669 ______P__O____ -1 -27.61 163.05 -27.60 163.00 TC 7 5 91
1922 SP MM 03:00:00 TS -27.59 163.30 669 650 ______P__P____ -1 -27.60 163.37 -27.59 163.23 TC 7 4 76
1922 SP MM 06:00:00 TS -27.51 163.46 650 640 ______P__P____ -1 -27.51 163.52 -27.50 163.39 TC 7 3 46
1922 SP MM 09:00:00 TS -27.38 163.55 640 625 ______P__P____ -1 -27.39 163.58 -27.36 163.51 TC 7 3 27
1922 SP MM 11:00:00 TS -27.28 163.59 bom 625 616 ______O__P____ -1 -27.30 163.60 -27.25 163.57 TC 7 3 24
1922 SP MM 12:00:00 TS -27.23 163.62 616 601 ______P__O____ -1 -27.26 163.64 -27.20 163.60 TC 7 3 36
1922 SP MM 15:00:00 TS -27.11 163.72 601 587 ______P__P____ -1 -27.15 163.74 -27.07 163.71 TC 7 3 30
1922 SP MM 18:00:00 TS -26.96 163.79 587 567 ______P__P____ -1 -27.00 163.80 -26.93 163.78 TC 7 3 15
1922 SP MM 21:00:00 TS -26.80 163.82 567 557 ______P__P____ -1 -26.83 163.82 -26.77 163.82 TC 7 3 3
1922 SP MM 23:00:00 TS -26.68 163.81 bom 557 547 ______O__P____ -1 -26.70 163.80 -26.66 163.81 TC 7 4 0
1922 SP MM 1922-02-16 00:00:00 TS -26.61 163.79 547 528 ______P__O____ -1 -26.63 163.79 -26.60 163.80 TC 7 4 350
1922 SP MM 03:00:00 TS -26.40 163.76 528 514 ______P__P____ -1 -26.38 163.72 -26.42 163.80 TC 7 4 348
1922 SP MM 06:00:00 TS -26.18 163.68 514 507 ______P__P____ -1 -26.12 163.61 -26.23 163.76 TC 7 6 311
1922 SP MM 09:00:00 TS -26.01 163.25 525 525 ______P__P____ -1 -25.88 163.46 -26.04 163.67 TC 7 10 284
1922 SP MM 10:00:00 TS -26.02 162.98 bom 537 537 ______O__P____ -1 -25.80 163.40 -25.97 163.63 TC 7 12 263
1922 SP MM 11:00:00 TS -26.06 162.80 558 558 ______P__PO___ -1 -25.74 163.36 -25.90 163.58 TC -26.70 161.00 7 9 252
1922 SP MM 12:00:00 TS -26.11 162.67 564 564 ______P__PP___ -1 -25.68 163.32 -25.83 163.53 TC -26.78 161.15 7 1 241
1922 SP MM 15:00:00 TS -26.10 162.73 564 564 ______P__PP___ -1 -25.51 163.18 -25.62 163.32 TC -27.01 161.60 7 1 47
1922 SP MM 18:00:00 TS -26.06 162.73 564 546 ______P__PP___ -1 -25.37 162.97 -25.41 163.03 TC -27.24 162.08 7 3 347
1922 SP MM 21:00:00 TS -25.85 162.66 537 529 ______P__PP___ -1 -25.21 162.67 -25.21 162.66 TC -27.46 162.57 7 6 334
1922 SP MM 23:00:00 TS -25.59 162.49 bom 529 510 ______O__PO___ -1 -25.10 162.40 -25.07 162.37 TC -27.60 162.90 7 13 329
1922 SP MM 1922-02-17 00:00:00 TS -25.30 162.31 510 493 ______P__O____ -1 -25.02 162.24 -25.00 162.20 TC 7 17 317
1922 SP MM 03:00:00 TS -24.77 161.66 501 499 ______P__P____ -1 -24.78 161.67 -24.77 161.64 TC 7 14 303
1922 SP MM 06:00:00 TS -24.54 161.00 528 528 ______P__P____ -1 -24.53 161.00 -24.54 161.00 TC 7 13 290
1922 SP MM 09:00:00 TS -24.33 160.30 571 571 ______P__P____ -1 -24.31 160.29 -24.35 160.31 TC 7 13 286
1922 SP EA 11:00:00 TS -24.22 159.82 bom 606 606 ______O__P____ -1 -24.20 159.80 -24.24 159.84 TC 13 283
1922 SP EA 12:00:00 TS -24.18 159.58 622 564 ______P__O____ -1 -24.16 159.57 -24.20 159.60 TC 13 278
1922 SP EA 15:00:00 TS -24.11 158.88 564 495 ______P__P____ -1 -24.09 158.86 -24.12 158.90 TC 13 274
1922 SP EA 18:00:00 TS -24.08 158.16 495 426 ______P__P____ -1 -24.08 158.15 -24.09 158.18 TC 13 271
1922 SP EA 21:00:00 TS -24.09 157.46 426 377 ______P__P____ -1 -24.09 157.45 -24.09 157.48 TC 13 269
1922 SP EA 23:00:00 TS -24.10 157.01 995 bom 377 358 ______O__P____ -1 -24.10 157.00 995 4 -24.10 157.02 TC 12 269
1922 SP EA 1922-02-18 00:00:00 TS -24.10 156.79 358 300 ______P__O____ -1 -24.11 156.78 -24.10 156.80 TC 40 995 12 268
1922 SP EA 03:00:00 TS -24.13 156.13 290 230 ______P__P____ -1 -24.14 156.12 -24.12 156.14 TC 12 267
1922 SP EA 06:00:00 TS -24.16 155.50 230 175 ______P__P____ -1 -24.18 155.49 -24.15 155.51 TC 11 266
1922 SP EA 09:00:00 TS -24.21 154.91 175 147 ______P__P____ -1 -24.23 154.90 -24.18 154.91 TC 11 266
1922 SP EA 11:00:00 TS -24.23 154.53 138 129 ______P__P____ -1 -24.26 154.53 -24.20 154.54 TC 10 266
1922 SP EA 12:00:00 TS -24.24 154.36 129 82 ______P__P____ -1 -24.27 154.35 -24.21 154.36 TC 9 267
1922 SP EA 15:00:00 TS -24.26 153.85 82 56 ______P__P____ -1 -24.30 153.85 -24.23 153.85 TC 9 269
1922 SP EA 18:00:00 TS -24.26 153.40 56 55 ______P__P____ -1 -24.30 153.40 -24.22 153.40 TC 8 273
1922 SP EA 21:00:00 TS -24.22 153.02 67 67 ______P__P____ -1 -24.25 153.02 -24.18 153.02 TC 7 280
1922 SP EA 23:00:00 TS -24.17 152.80 bom 73 73 ______O__P____ -1 -24.20 152.80 -24.13 152.80 TC 6 286
1922 SP EA 1922-02-19 00:00:00 TS -24.13 152.69 81 55 ______P__O____ -1 -24.16 152.69 -24.10 152.70 TC 6 294
1922 SP EA 03:00:00 TS -24.00 152.39 55 45 ______P__P____ -1 -24.02 152.39 -23.98 152.40 TC 6 302
1922 SP EA 06:00:00 TS -23.83 152.17 52 45 ______P__P____ -1 -23.85 152.17 -23.82 152.17 TC 5 318
1922 SP EA 09:00:00 TS -23.63 152.04 59 59 ______P__P____ -1 -23.65 152.04 -23.62 152.03 TC 5 335
1922 SP EA 11:00:00 TS -23.49 152.00 bom 70 70 ______O__P____ -1 -23.50 152.00 -23.48 152.00 TC 4 347
1922 SP EA 12:00:00 TS -23.42 151.98 80 80 ______P__O____ -1 -23.44 151.95 -23.40 152.00 TC 4 346
1922 SP EA 15:00:00 TS -23.20 151.93 101 101 ______P__P____ -1 -23.25 151.86 -23.16 152.00 TC 5 0
1922 SP EA 18:00:00 TS -22.96 152.00 123 122 ______P__P____ -1 -23.02 151.90 -22.89 152.10 TC 6 27
1922 SP EA 21:00:00 TS -22.67 152.22 143 143 ______P__P____ -1 -22.74 152.12 -22.60 152.33 TC 8 41
1922 SP EA 23:00:00 TS -22.45 152.48 bom 174 174 ______O__P____ -1 -22.50 152.40 -22.40 152.56 TC 10 49
1922 SP EA 1922-02-20 00:00:00 TS -22.33 152.64 186 186 ______P__O____ -1 -22.35 152.59 -22.30 152.70 TC 13 54
1922 SP EA 03:00:00 TS -21.93 153.26 265 265 ______P__P____ -1 -21.86 153.31 -22.00 153.22 TC 15 70
1922 SP EA 06:00:00 TS -21.80 154.21 347 343 ______P__P____ -1 -21.33 154.18 -21.69 153.89 TC 16 86
1922 SP EA 08:00:00 TS -21.83 154.74 bom 364 364 ______O__P____ -1 -21.00 154.80 -21.48 154.39 TC 15 61
1922 SP EA 09:00:00 TS -21.45 154.90 413 413 ______P__P____ -1 -20.84 155.08 -21.37 154.66 TC 24 34
1922 SP EA 11:00:00 TS -20.84 155.44 496 496 ______P__P____ -1 -20.51 155.64 -21.16 155.24 TC 22 47
1922 SP EA 12:00:00 TS -20.71 155.74 520 520 ______P__P____ -1 -20.36 155.93 -21.05 155.54 TC 19 67
1922 SP EA 15:00:00 TS -20.35 156.66 612 612 ______P__P____ -1 -19.96 156.82 -20.73 156.49 TC 19 69
1922 SP EA 18:00:00 TS -20.04 157.63 668 607 ______P__P____ -1 -19.69 157.76 -20.39 157.50 TC 19 73
1922 SP EA 20:00:00 TS -19.88 158.30 bom 596 566 ______O__P____ -1 -19.60 158.40 -20.16 158.19 TC 20 75
1922 SP EA 21:00:00 TS -19.78 158.66 556 495 ______P__P____ -1 -19.58 158.74 -20.05 158.54 TC 20 78
1922 SP EA 23:00:00 TS -19.67 159.35 bom 495 464 ______O__P____ -1 -19.60 159.40 -19.82 159.25 TC 19 82
1922 SP EA 1922-02-21 00:00:00 TS -19.65 159.66 454 388 ______P__O____ -1 -19.64 159.68 -19.70 159.60 TC 14 104
1922 SP MM 03:00:00 NR -19.90 160.31 388 344 ______P_______ -1 -19.90 160.31 TC 12 123
1922 SP MM 06:00:00 NR -20.32 160.75 333 305 ______P_______ -1 -20.32 160.75 TC 12 141
1922 SP MM 09:00:00 NR -20.80 161.10 bom 307 291 ______O_______ -1 -20.80 161.10 TC 12 146
1922 SP MM 11:00:00 NR -21.12 161.33 294 288 ______P_______ -1 -21.12 161.33 TC 12 146
1922 SP MM 12:00:00 NR -21.28 161.44 292 276 ______P_______ -1 -21.28 161.44 TC 12 145
1922 SP MM 15:00:00 NR -21.76 161.80 283 274 ______P_______ -1 -21.76 161.80 TC 12 144
1922 SP MM 18:00:00 NR -22.23 162.17 276 274 ______P_______ -1 -22.23 162.17 TC 12 144
1922 SP MM 21:00:00 NR -22.69 162.55 286 273 ______P_______ -1 -22.69 162.55 TC 12 143
1922 SP MM 23:00:00 NR -23.00 162.80 bom 280 ______O_______ -1 -23.00 162.80 TC 12 143